createdAt,value
2023-02-22T00:01:23.414Z,5.57
2023-02-22T00:03:53.646Z,5.43
2023-02-22T00:06:26.129Z,5.90
2023-02-22T00:08:55.837Z,5.65
2023-02-22T00:11:25.277Z,5.10
2023-02-22T00:13:57.532Z,4.90
2023-02-22T00:16:27.567Z,5.00
2023-02-22T00:18:56.900Z,5.65
2023-02-22T00:21:26.135Z,5.50
2023-02-22T00:23:55.317Z,5.18
2023-02-22T00:26:24.792Z,5.47
2023-02-22T00:28:56.530Z,5.60
2023-02-22T00:31:26.684Z,5.57
2023-02-22T00:33:55.960Z,5.40
2023-02-22T00:36:25.299Z,6.00
2023-02-22T00:38:55.888Z,5.40
2023-02-22T00:41:25.087Z,5.68
2023-02-22T00:43:54.281Z,5.88
2023-02-22T00:46:24.968Z,5.70
2023-02-22T00:48:55.576Z,5.45
2023-02-22T00:51:27.400Z,5.47
2023-02-22T00:53:56.657Z,5.95
2023-02-22T00:56:26.121Z,5.45
2023-02-22T00:58:55.393Z,5.53
2023-02-22T01:01:26.217Z,5.28
2023-02-22T01:03:57.413Z,5.82
2023-02-22T01:06:26.735Z,5.78
2023-02-22T01:08:55.982Z,5.07
2023-02-22T01:11:26.586Z,4.80
2023-02-22T01:13:56.711Z,5.32
2023-02-22T01:16:27.745Z,5.80
2023-02-22T01:18:57.227Z,5.53
2023-02-22T01:21:26.454Z,5.43
2023-02-22T01:23:57.354Z,5.65
2023-02-22T01:26:26.770Z,5.28
2023-02-22T01:28:55.947Z,5.78
2023-02-22T01:31:26.594Z,5.70
2023-02-22T01:33:55.804Z,5.32
2023-02-22T01:36:25.249Z,5.30
2023-02-22T01:38:54.470Z,5.80
2023-02-22T01:41:23.883Z,5.38
2023-02-22T01:43:53.087Z,5.50
2023-02-22T01:46:24.353Z,5.13
2023-02-22T01:49:01.323Z,5.75
2023-02-22T01:51:37.670Z,5.45
2023-02-22T01:54:12.218Z,5.43
2023-02-22T01:56:50.589Z,5.72
2023-02-22T01:59:23.564Z,5.65
2023-02-22T02:01:53.009Z,6.20
2023-02-22T02:04:25.952Z,5.78
2023-02-22T02:07:01.514Z,5.47
2023-02-22T02:09:36.750Z,5.72
2023-02-22T02:12:06.768Z,5.70
2023-02-22T02:14:40.627Z,4.68
2023-02-22T02:17:11.981Z,5.25
2023-02-22T02:19:49.405Z,5.32
2023-02-22T02:22:32.506Z,5.22
2023-02-22T02:25:40.322Z,5.03
2023-02-22T02:28:43.561Z,5.40
2023-02-22T02:31:32.021Z,5.72
2023-02-22T02:34:06.760Z,5.05
2023-02-22T02:36:45.336Z,5.43
2023-02-22T02:39:24.731Z,5.07
2023-02-22T02:41:54.449Z,5.43
2023-02-22T02:44:30.852Z,5.45
2023-02-22T02:47:08.253Z,5.75
2023-02-22T02:49:55.872Z,5.65
2023-02-22T02:52:28.202Z,5.22
2023-02-22T02:54:58.165Z,5.15
2023-02-22T02:57:28.050Z,5.35
2023-02-22T02:59:57.346Z,5.82
2023-02-22T03:02:46.474Z,5.00
2023-02-22T03:05:41.252Z,5.60
2023-02-22T03:08:19.051Z,5.40
2023-02-22T03:10:58.338Z,5.50
2023-02-22T03:13:32.596Z,5.55
2023-02-22T03:16:17.327Z,5.35
2023-02-22T03:18:52.657Z,5.05
2023-02-22T03:21:29.707Z,5.10
2023-02-22T03:24:07.843Z,4.97
2023-02-22T03:26:42.943Z,5.63
2023-02-22T03:29:16.307Z,4.95
2023-02-22T03:31:53.043Z,5.32
2023-02-22T03:34:30.915Z,5.38
2023-02-22T03:37:06.706Z,5.50
2023-02-22T03:39:38.067Z,5.13
2023-02-22T03:42:11.906Z,5.03
2023-02-22T03:44:42.809Z,4.95
2023-02-22T03:47:15.881Z,5.63
2023-02-22T03:49:51.262Z,4.72
2023-02-22T03:52:23.653Z,4.82
2023-02-22T03:54:53.823Z,4.95
2023-02-22T03:57:29.949Z,5.40
2023-02-22T04:00:09.844Z,4.82
2023-02-22T04:02:46.484Z,5.22
2023-02-22T04:05:20.830Z,5.13
2023-02-22T04:07:52.308Z,5.22
2023-02-22T04:10:22.571Z,5.10
2023-02-22T04:12:52.344Z,5.03
2023-02-22T04:15:24.102Z,5.60
2023-02-22T04:17:57.634Z,4.68
2023-02-22T04:20:26.934Z,4.60
2023-02-22T04:23:08.833Z,5.07
2023-02-22T04:25:41.309Z,5.05
2023-02-22T04:28:13.881Z,5.38
2023-02-22T04:30:47.858Z,4.53
2023-02-22T04:33:19.618Z,4.90
2023-02-22T04:35:49.161Z,4.60
2023-02-22T04:38:19.898Z,5.45
2023-02-22T04:40:50.377Z,4.53
2023-02-22T04:43:19.712Z,5.10
2023-02-22T04:45:49.830Z,4.82
2023-02-22T04:48:19.200Z,4.80
2023-02-22T04:50:48.887Z,5.03
2023-02-22T04:53:20.064Z,4.45
2023-02-22T04:55:49.390Z,5.20
2023-02-22T04:58:19.526Z,4.95
2023-02-22T05:00:50.537Z,4.88
2023-02-22T05:03:19.924Z,5.30
2023-02-22T05:05:49.187Z,5.40
2023-02-22T05:08:19.903Z,4.80
2023-02-22T05:10:49.489Z,4.72
2023-02-22T05:13:18.691Z,4.20
2023-02-22T05:15:49.161Z,4.82
2023-02-22T05:18:18.628Z,4.50
2023-02-22T05:20:47.792Z,4.60
2023-02-22T05:23:17.107Z,4.72
2023-02-22T05:25:47.822Z,4.90
2023-02-22T05:28:17.906Z,5.03
2023-02-22T05:30:47.204Z,4.20
2023-02-22T05:33:16.566Z,4.90
2023-02-22T05:35:46.476Z,4.35
2023-02-22T05:38:16.348Z,4.60
2023-02-22T05:40:47.189Z,4.63
2023-02-22T05:43:17.066Z,4.80
2023-02-22T05:45:46.338Z,4.68
2023-02-22T05:48:15.556Z,4.25
2023-02-22T05:50:44.794Z,4.95
2023-02-22T05:53:14.151Z,4.85
2023-02-22T05:55:45.008Z,4.30
2023-02-22T05:58:17.338Z,4.57
2023-02-22T06:00:46.652Z,4.80
2023-02-22T06:03:16.136Z,4.10
2023-02-22T06:05:45.756Z,3.95
2023-02-22T06:08:15.018Z,3.80
2023-02-22T06:10:44.421Z,3.90
2023-02-22T06:13:13.654Z,4.22
2023-02-22T06:15:44.515Z,4.28
2023-02-22T06:18:13.747Z,4.75
2023-02-22T06:20:42.955Z,4.13
2023-02-22T06:23:12.286Z,3.35
2023-02-22T06:25:42.027Z,3.75
2023-02-22T06:28:11.353Z,3.65
2023-02-22T06:30:43.958Z,4.32
2023-02-22T06:33:13.605Z,3.42
2023-02-22T06:35:42.871Z,3.72
2023-02-22T06:38:12.279Z,3.72
2023-02-22T06:40:41.750Z,3.67
2023-02-22T06:43:11.293Z,3.63
2023-02-22T06:45:40.617Z,3.90
2023-02-22T06:48:11.263Z,3.20
2023-02-22T06:50:40.581Z,3.47
2023-02-22T06:53:09.985Z,3.72
2023-02-22T06:55:39.307Z,4.07
2023-02-22T06:58:08.520Z,3.70
2023-02-22T07:00:37.757Z,3.70
2023-02-22T07:03:07.113Z,3.40
2023-02-22T07:05:38.459Z,3.67
2023-02-22T07:08:09.236Z,3.22
2023-02-22T07:10:39.790Z,4.68
2023-02-22T07:13:09.974Z,4.30
2023-02-22T07:15:39.676Z,4.18
2023-02-22T07:18:09.362Z,3.33
2023-02-22T07:20:40.189Z,4.18
2023-02-22T07:23:09.745Z,3.70
2023-02-22T07:25:39.145Z,3.40
2023-02-22T07:28:08.395Z,3.70
2023-02-22T07:30:37.723Z,3.85
2023-02-22T07:33:08.623Z,3.95
2023-02-22T07:35:41.097Z,3.47
2023-02-22T07:38:10.532Z,3.65
2023-02-22T07:40:40.559Z,4.13
2023-02-22T07:43:16.921Z,3.90
2023-02-22T07:45:47.853Z,3.50
2023-02-22T07:48:18.234Z,4.13
2023-02-22T07:50:49.512Z,3.95
2023-02-22T07:53:21.200Z,3.92
2023-02-22T07:55:52.063Z,3.75
2023-02-22T07:58:22.983Z,3.83
2023-02-22T08:00:52.406Z,3.72
2023-02-22T08:03:23.582Z,3.60
2023-02-22T08:05:56.336Z,3.80
2023-02-22T08:08:26.081Z,4.13
2023-02-22T08:10:55.497Z,3.85
2023-02-22T08:13:25.335Z,3.80
2023-02-22T08:15:55.411Z,3.63
2023-02-22T08:18:26.382Z,3.80
2023-02-22T08:20:57.400Z,3.60
2023-02-22T08:23:28.048Z,4.60
2023-02-22T08:25:57.981Z,5.60
2023-02-22T08:28:27.243Z,7.18
2023-02-22T08:30:56.588Z,5.15
2023-02-22T08:33:26.161Z,5.07
2023-02-22T08:35:57.111Z,4.78
2023-02-22T08:38:28.887Z,4.82
2023-02-22T08:40:58.783Z,4.78
2023-02-22T08:43:29.894Z,4.80
2023-02-22T08:45:59.399Z,4.35
2023-02-22T08:48:28.644Z,4.53
2023-02-22T08:50:59.554Z,4.93
2023-02-22T08:53:28.993Z,4.15
2023-02-22T08:55:58.440Z,5.00
2023-02-22T08:58:27.849Z,5.53
2023-02-22T09:00:57.296Z,6.43
2023-02-22T09:03:26.649Z,5.82
2023-02-22T09:05:56.577Z,5.30
2023-02-22T09:08:27.373Z,5.40
2023-02-22T09:10:56.871Z,4.55
2023-02-22T09:13:26.245Z,4.65
2023-02-22T09:15:55.605Z,4.95
2023-02-22T09:18:26.962Z,4.68
2023-02-22T09:21:00.311Z,5.05
2023-02-22T09:23:30.980Z,5.13
2023-02-22T09:26:00.990Z,4.47
2023-02-22T09:28:30.281Z,4.50
2023-02-22T09:30:59.532Z,4.80
2023-02-22T09:33:28.863Z,4.25
2023-02-22T09:36:00.949Z,4.57
2023-02-22T09:38:32.799Z,4.70
2023-02-22T09:41:12.575Z,4.50
2023-02-22T09:43:49.761Z,4.70
2023-02-22T09:46:27.255Z,4.50
2023-02-22T09:49:03.192Z,4.25
2023-02-22T09:51:39.179Z,4.38
2023-02-22T09:54:22.794Z,4.47
2023-02-22T09:56:54.836Z,4.65
2023-02-22T09:59:28.760Z,4.25
2023-02-22T10:02:06.930Z,4.50
2023-02-22T10:04:44.556Z,4.10
2023-02-22T10:07:20.071Z,4.30
2023-02-22T10:09:51.808Z,4.03
2023-02-22T10:12:30.436Z,4.43
2023-02-22T10:15:37.304Z,4.57
2023-02-22T10:18:34.547Z,4.25
2023-02-22T10:21:13.275Z,4.80
2023-02-22T10:23:50.653Z,4.32
2023-02-22T10:26:25.264Z,4.55
2023-02-22T10:28:59.833Z,4.38
2023-02-22T10:31:33.962Z,4.68
2023-02-22T10:34:06.271Z,4.35
2023-02-22T10:36:39.291Z,5.45
2023-02-22T10:39:17.793Z,4.25
2023-02-22T10:41:53.147Z,4.00
2023-02-22T10:44:22.530Z,4.50
2023-02-22T10:46:53.481Z,4.13
2023-02-22T10:49:25.690Z,4.20
2023-02-22T10:52:02.044Z,4.07
2023-02-22T10:54:35.052Z,3.60
2023-02-22T10:57:05.974Z,4.18
2023-02-22T10:59:37.117Z,3.80
2023-02-22T11:02:19.581Z,3.88
2023-02-22T11:04:50.966Z,4.07
2023-02-22T11:07:24.237Z,4.05
2023-02-22T11:09:55.370Z,4.40
2023-02-22T11:12:32.601Z,4.25
2023-02-22T11:15:28.263Z,4.18
2023-02-22T11:18:01.583Z,4.40
2023-02-22T11:20:34.999Z,4.18
2023-02-22T11:23:08.362Z,4.03
2023-02-22T11:25:40.082Z,4.10
2023-02-22T11:28:15.090Z,4.20
2023-02-22T11:30:48.187Z,4.15
2023-02-22T11:33:24.023Z,4.45
2023-02-22T11:35:55.562Z,4.20
2023-02-22T11:38:26.754Z,4.07
2023-02-22T11:41:16.004Z,4.30
2023-02-22T11:43:48.796Z,4.28
2023-02-22T11:46:20.081Z,3.97
2023-02-22T11:48:59.637Z,4.03
2023-02-22T11:51:41.812Z,4.13
2023-02-22T11:54:41.159Z,4.05
2023-02-22T11:57:23.333Z,3.90
2023-02-22T12:00:16.494Z,4.05
2023-02-22T12:03:04.020Z,4.30
2023-02-22T12:06:00.718Z,4.70
2023-02-22T12:08:43.804Z,4.18
2023-02-22T12:11:19.560Z,4.60
2023-02-22T12:14:05.830Z,4.05
2023-02-22T12:16:47.418Z,4.63
2023-02-22T12:19:28.047Z,4.07
2023-02-22T12:22:03.217Z,4.00
2023-02-22T12:24:38.292Z,3.78
2023-02-22T12:27:11.559Z,4.20
2023-02-22T12:29:47.305Z,4.25
2023-02-22T12:32:26.291Z,4.43
2023-02-22T12:34:59.877Z,4.25
2023-02-22T12:37:32.823Z,4.30
2023-02-22T12:40:08.739Z,4.28
2023-02-22T12:42:48.768Z,4.32
2023-02-22T12:45:27.549Z,4.38
2023-02-22T12:48:07.535Z,4.07
2023-02-22T12:50:38.371Z,3.58
2023-02-22T12:53:15.957Z,3.70
2023-02-22T12:55:51.991Z,4.13
2023-02-22T12:58:27.130Z,3.92
2023-02-22T13:01:05.779Z,3.83
2023-02-22T13:03:40.432Z,3.55
2023-02-22T13:06:29.445Z,4.28
2023-02-22T13:09:15.640Z,4.55
2023-02-22T13:11:53.348Z,4.13
2023-02-22T13:14:38.966Z,4.68
2023-02-22T13:17:15.004Z,5.18
2023-02-22T13:19:54.044Z,6.72
2023-02-22T13:22:31.094Z,8.00
2023-02-22T13:25:06.096Z,8.82
2023-02-22T13:27:42.164Z,7.55
2023-02-22T13:30:21.317Z,5.75
2023-02-22T13:33:14.676Z,5.20
2023-02-22T13:41:56.837Z,5.57
2023-02-22T13:44:59.995Z,5.57
2023-02-22T13:48:10.878Z,5.97
2023-02-22T13:51:04.749Z,6.03
2023-02-22T13:53:44.066Z,6.32
2023-02-22T13:56:16.314Z,5.38
2023-02-22T13:58:51.252Z,5.93
2023-02-22T14:01:45.868Z,5.53
2023-02-22T14:04:24.671Z,5.78
2023-02-22T14:06:56.241Z,7.57
2023-02-22T14:09:45.770Z,9.20
2023-02-22T14:12:48.012Z,9.55
2023-02-22T14:15:30.866Z,9.05
2023-02-22T14:18:02.300Z,9.93
2023-02-22T14:20:35.263Z,8.52
2023-02-22T14:23:35.459Z,8.52
2023-02-22T14:26:17.810Z,9.10
2023-02-22T14:28:54.625Z,8.95
2023-02-22T14:31:36.060Z,8.57
2023-02-22T14:34:10.613Z,8.25
2023-02-22T14:36:53.502Z,8.75
2023-02-22T14:39:32.379Z,7.70
2023-02-22T14:42:07.270Z,7.55
2023-02-22T14:44:41.821Z,8.05
2023-02-22T14:47:20.259Z,8.15
2023-02-22T14:49:52.813Z,7.95
2023-02-22T14:52:26.584Z,8.02
2023-02-22T14:55:07.618Z,7.47
2023-02-22T14:57:53.756Z,7.07
2023-02-22T15:00:31.272Z,7.63
2023-02-22T15:03:02.004Z,7.03
2023-02-22T15:05:38.641Z,7.80
2023-02-22T15:08:10.068Z,7.40
2023-02-22T15:10:46.952Z,6.78
2023-02-22T15:13:20.321Z,7.18
2023-02-22T15:15:51.250Z,6.65
2023-02-22T15:18:25.120Z,6.90
2023-02-22T15:20:58.358Z,6.63
2023-02-22T15:23:33.442Z,7.28
2023-02-22T15:26:04.830Z,7.05
2023-02-22T15:28:36.738Z,6.55
2023-02-22T15:31:17.985Z,6.68
2023-02-22T15:33:47.596Z,6.78
2023-02-22T15:36:17.992Z,6.80
2023-02-22T15:38:52.653Z,6.43
2023-02-22T15:41:29.076Z,6.63
2023-02-22T15:44:14.135Z,6.38
2023-02-22T15:46:51.180Z,6.03
2023-02-22T15:49:23.615Z,6.28
2023-02-22T15:52:05.589Z,6.30
2023-02-22T15:54:44.025Z,5.45
2023-02-22T15:57:19.167Z,5.50
2023-02-22T15:59:53.288Z,5.85
2023-02-22T16:02:39.735Z,5.97
2023-02-22T16:05:13.113Z,6.13
2023-02-22T16:07:46.296Z,5.18
2023-02-22T16:10:28.721Z,5.32
2023-02-22T16:13:19.098Z,5.93
2023-02-22T16:16:02.115Z,6.03
2023-02-22T16:18:34.530Z,5.78
2023-02-22T16:21:07.689Z,5.63
2023-02-22T16:23:47.468Z,5.20
2023-02-22T16:26:24.612Z,5.18
2023-02-22T16:28:56.672Z,5.70
2023-02-22T16:31:27.977Z,5.63
2023-02-22T16:33:57.409Z,5.45
2023-02-22T16:36:39.677Z,5.45
2023-02-22T16:39:10.348Z,5.40
2023-02-22T16:41:39.730Z,4.72
2023-02-22T16:44:13.099Z,5.20
2023-02-22T16:46:43.218Z,4.70
2023-02-22T16:49:13.377Z,5.05
2023-02-22T16:51:46.902Z,5.07
2023-02-22T16:54:20.808Z,4.70
2023-02-22T16:56:50.102Z,4.70
2023-02-22T16:59:20.920Z,5.05
2023-02-22T17:01:50.524Z,4.55
2023-02-22T17:04:22.392Z,4.18
2023-02-22T17:06:52.018Z,4.47
2023-02-22T17:09:21.433Z,5.07
2023-02-22T17:11:52.936Z,4.30
2023-02-22T17:14:28.824Z,4.40
2023-02-22T17:17:01.050Z,4.80
2023-02-22T17:19:30.469Z,4.70
2023-02-22T17:22:01.250Z,4.75
2023-02-22T17:24:30.512Z,4.50
2023-02-22T17:26:59.933Z,4.65
2023-02-22T17:29:30.901Z,4.40
2023-02-22T17:32:00.367Z,4.65
2023-02-22T17:34:29.789Z,4.93
2023-02-22T17:36:59.188Z,4.90
2023-02-22T17:39:28.723Z,4.95
2023-02-22T17:41:58.003Z,5.22
2023-02-22T17:44:27.754Z,6.13
2023-02-22T17:46:58.445Z,5.32
2023-02-22T17:49:27.863Z,6.15
2023-02-22T17:51:57.250Z,5.47
2023-02-22T17:54:27.235Z,4.75
2023-02-22T17:56:58.050Z,4.72
2023-02-22T17:59:28.078Z,4.68
2023-02-22T18:01:58.842Z,4.05
2023-02-22T18:04:28.226Z,4.72
2023-02-22T18:06:57.603Z,4.43
2023-02-22T18:09:27.056Z,4.38
2023-02-22T18:11:56.321Z,4.75
2023-02-22T18:14:25.738Z,4.25
2023-02-22T18:16:54.994Z,4.40
2023-02-22T18:19:25.737Z,4.65
2023-02-22T18:21:54.982Z,4.45
2023-02-22T18:24:24.266Z,4.70
2023-02-22T18:26:53.694Z,4.75
2023-02-22T18:29:23.001Z,4.57
2023-02-22T18:31:54.633Z,4.43
2023-02-22T18:34:25.919Z,4.40
2023-02-22T18:36:55.410Z,5.00
2023-02-22T18:39:24.702Z,5.55
2023-02-22T18:41:54.038Z,4.70
2023-02-22T18:44:23.411Z,4.53
2023-02-22T18:46:53.716Z,15.98
2023-02-22T18:49:26.389Z,47.45
2023-02-22T18:51:55.764Z,85.93
2023-02-22T18:54:25.086Z,57.15
2023-02-22T18:56:54.764Z,36.75
2023-02-22T18:59:24.146Z,29.45
2023-02-22T19:01:53.519Z,25.67
2023-02-22T19:04:25.321Z,23.75
2023-02-22T19:06:57.678Z,23.15
2023-02-22T19:09:27.625Z,23.38
2023-02-22T19:11:56.924Z,20.25
2023-02-22T19:14:26.306Z,20.50
2023-02-22T19:16:57.207Z,19.25
2023-02-22T19:19:27.969Z,19.13
2023-02-22T19:21:57.685Z,18.73
2023-02-22T19:24:27.080Z,19.08
2023-02-22T19:27:00.038Z,18.13
2023-02-22T19:29:31.310Z,17.40
2023-02-22T19:32:01.093Z,16.60
2023-02-22T19:34:35.512Z,16.52
2023-02-22T19:37:08.773Z,16.48
2023-02-22T19:39:38.887Z,16.13
2023-02-22T19:42:09.920Z,15.70
2023-02-22T19:44:39.616Z,15.05
2023-02-22T19:47:10.368Z,14.45
2023-02-22T19:49:42.525Z,14.20
2023-02-22T19:52:13.422Z,14.88
2023-02-22T19:54:42.825Z,14.00
2023-02-22T19:57:13.478Z,13.77
2023-02-22T19:59:42.862Z,13.95
2023-02-22T20:02:13.213Z,13.27
2023-02-22T20:04:44.149Z,13.85
2023-02-22T20:07:13.809Z,12.82
2023-02-22T20:09:43.675Z,13.63
2023-02-22T20:12:13.179Z,12.55
2023-02-22T20:14:43.124Z,12.77
2023-02-22T20:17:13.538Z,12.27
2023-02-22T20:19:44.586Z,12.05
2023-02-22T20:22:14.407Z,11.45
2023-02-22T20:24:43.977Z,10.57
2023-02-22T20:27:13.636Z,11.00
2023-02-22T20:29:43.403Z,11.32
2023-02-22T20:32:15.681Z,10.60
2023-02-22T20:34:50.593Z,10.80
2023-02-22T20:37:20.332Z,10.05
2023-02-22T20:39:51.686Z,10.02
2023-02-22T20:42:21.411Z,10.45
2023-02-22T20:44:52.117Z,10.15
2023-02-22T20:47:22.244Z,9.43
2023-02-22T20:49:53.340Z,9.48
2023-02-22T20:52:22.793Z,9.65
2023-02-22T20:54:51.944Z,9.57
2023-02-22T20:57:21.349Z,9.88
2023-02-22T20:59:50.675Z,9.07
2023-02-22T21:02:19.953Z,10.35
2023-02-22T21:04:49.464Z,8.98
2023-02-22T21:07:22.530Z,9.75
2023-02-22T21:09:52.704Z,9.75
2023-02-22T21:12:22.106Z,9.25
2023-02-22T21:14:51.401Z,8.90
2023-02-22T21:17:31.282Z,9.57
2023-02-22T21:20:00.636Z,9.45
2023-02-22T21:22:31.718Z,8.60
2023-02-22T21:25:01.077Z,9.80
2023-02-22T21:27:30.397Z,9.07
2023-02-22T21:29:59.665Z,9.05
2023-02-22T21:32:28.858Z,8.35
2023-02-22T21:34:58.132Z,9.00
2023-02-22T21:37:28.075Z,8.65
2023-02-22T21:39:59.212Z,8.48
2023-02-22T21:42:28.470Z,8.40
2023-02-22T21:44:57.758Z,7.82
2023-02-22T21:47:27.777Z,8.35
2023-02-22T21:49:57.074Z,8.48
2023-02-22T21:52:27.602Z,8.65
2023-02-22T21:54:58.487Z,7.80
2023-02-22T21:57:27.776Z,8.07
2023-02-22T21:59:57.174Z,8.02
2023-02-22T22:02:27.005Z,7.45
2023-02-22T22:04:57.220Z,8.05
2023-02-22T22:07:26.484Z,8.27
2023-02-22T22:09:56.799Z,6.88
2023-02-22T22:12:37.534Z,7.55
2023-02-22T22:15:09.020Z,7.25
2023-02-22T22:17:38.388Z,7.53
2023-02-22T22:20:11.616Z,7.38
2023-02-22T22:22:42.640Z,7.60
2023-02-22T22:25:12.874Z,7.55
2023-02-22T22:27:43.558Z,7.47
2023-02-22T22:30:16.681Z,7.30
2023-02-22T22:32:46.061Z,6.78
2023-02-22T22:35:15.804Z,7.03
2023-02-22T22:37:51.411Z,6.53
2023-02-22T22:40:21.025Z,6.40
2023-02-22T22:42:51.754Z,7.38
2023-02-22T22:45:21.444Z,7.05
2023-02-22T22:47:52.412Z,6.18
2023-02-22T22:50:26.562Z,6.80
2023-02-22T22:52:55.957Z,6.40
2023-02-22T22:55:25.359Z,6.38
2023-02-22T22:57:56.014Z,6.45
2023-02-22T23:00:33.654Z,6.47
2023-02-22T23:03:05.594Z,6.60
2023-02-22T23:05:38.577Z,6.95
2023-02-22T23:08:10.911Z,5.90
2023-02-22T23:10:41.905Z,6.50
2023-02-22T23:13:15.801Z,6.43
2023-02-22T23:15:47.921Z,6.28
2023-02-22T23:18:20.551Z,5.72
2023-02-22T23:20:55.302Z,5.65
2023-02-22T23:23:27.810Z,6.10
2023-02-22T23:26:18.073Z,6.13
2023-02-22T23:28:50.075Z,6.22
2023-02-22T23:31:19.636Z,5.72
2023-02-22T23:33:49.578Z,6.18
2023-02-22T23:36:20.555Z,5.78
2023-02-22T23:38:50.554Z,5.82
2023-02-22T23:41:20.309Z,6.65
2023-02-22T23:43:51.936Z,5.88
2023-02-22T23:46:21.310Z,6.40
2023-02-22T23:48:52.694Z,5.55
2023-02-22T23:51:25.792Z,5.80
2023-02-22T23:53:56.890Z,5.55
2023-02-22T23:56:28.099Z,5.47
2023-02-22T23:58:58.812Z,5.40
